sensor_id;sensor_type;location;lat;lon;timestamp;P1;durP1;ratioP1;P2;durP2;ratioP2
787;SDS011;16074;42.708;23.312;2022-09-24T00:01:51;7.90;;;7.18;;
787;SDS011;16074;42.708;23.312;2022-09-24T00:04:19;7.60;;;7.00;;
787;SDS011;16074;42.708;23.312;2022-09-24T00:06:53;7.60;;;6.75;;
787;SDS011;16074;42.708;23.312;2022-09-24T00:09:21;7.22;;;6.53;;
787;SDS011;16074;42.708;23.312;2022-09-24T00:11:49;6.28;;;5.72;;
787;SDS011;16074;42.708;23.312;2022-09-24T00:14:20;6.43;;;5.82;;
787;SDS011;16074;42.708;23.312;2022-09-24T00:16:48;6.85;;;6.15;;
787;SDS011;16074;42.708;23.312;2022-09-24T00:19:16;7.60;;;6.90;;
787;SDS011;16074;42.708;23.312;2022-09-24T00:21:44;8.15;;;5.88;;
787;SDS011;16074;42.708;23.312;2022-09-24T00:24:13;6.60;;;5.90;;
787;SDS011;16074;42.708;23.312;2022-09-24T00:26:57;8.63;;;6.78;;
787;SDS011;16074;42.708;23.312;2022-09-24T00:29:27;6.97;;;6.30;;
787;SDS011;16074;42.708;23.312;2022-09-24T00:31:56;6.55;;;5.95;;
787;SDS011;16074;42.708;23.312;2022-09-24T00:34:25;8.00;;;7.20;;
787;SDS011;16074;42.708;23.312;2022-09-24T00:36:53;6.80;;;6.30;;
787;SDS011;16074;42.708;23.312;2022-09-24T00:39:21;7.13;;;6.40;;
787;SDS011;16074;42.708;23.312;2022-09-24T00:41:49;7.85;;;6.85;;
787;SDS011;16074;42.708;23.312;2022-09-24T00:47:25;7.05;;;6.35;;
787;SDS011;16074;42.708;23.312;2022-09-24T00:50:00;7.30;;;6.60;;
787;SDS011;16074;42.708;23.312;2022-09-24T00:52:34;7.13;;;6.38;;
787;SDS011;16074;42.708;23.312;2022-09-24T00:55:07;7.55;;;6.80;;
787;SDS011;16074;42.708;23.312;2022-09-24T00:57:37;8.15;;;7.40;;
787;SDS011;16074;42.708;23.312;2022-09-24T01:00:08;6.85;;;5.60;;
787;SDS011;16074;42.708;23.312;2022-09-24T01:02:38;6.38;;;5.72;;
787;SDS011;16074;42.708;23.312;2022-09-24T01:05:09;6.57;;;6.07;;
787;SDS011;16074;42.708;23.312;2022-09-24T01:07:37;8.27;;;6.78;;
787;SDS011;16074;42.708;23.312;2022-09-24T01:10:06;7.90;;;7.10;;
787;SDS011;16074;42.708;23.312;2022-09-24T01:12:39;6.45;;;5.93;;
787;SDS011;16074;42.708;23.312;2022-09-24T01:15:17;8.40;;;7.60;;
787;SDS011;16074;42.708;23.312;2022-09-24T01:17:53;6.95;;;6.35;;
787;SDS011;16074;42.708;23.312;2022-09-24T01:23:39;7.88;;;7.20;;
787;SDS011;16074;42.708;23.312;2022-09-24T01:26:19;8.50;;;7.60;;
787;SDS011;16074;42.708;23.312;2022-09-24T01:29:02;7.47;;;6.93;;
787;SDS011;16074;42.708;23.312;2022-09-24T01:31:51;8.50;;;7.60;;
787;SDS011;16074;42.708;23.312;2022-09-24T01:34:33;7.40;;;6.80;;
787;SDS011;16074;42.708;23.312;2022-09-24T01:37:06;8.10;;;7.30;;
787;SDS011;16074;42.708;23.312;2022-09-24T01:39:35;7.55;;;6.85;;
787;SDS011;16074;42.708;23.312;2022-09-24T01:42:04;7.95;;;7.35;;
787;SDS011;16074;42.708;23.312;2022-09-24T01:44:36;9.32;;;6.82;;
787;SDS011;16074;42.708;23.312;2022-09-24T01:47:11;7.50;;;6.80;;
787;SDS011;16074;42.708;23.312;2022-09-24T01:49:46;8.80;;;7.95;;
787;SDS011;16074;42.708;23.312;2022-09-24T01:52:19;10.43;;;8.40;;
787;SDS011;16074;42.708;23.312;2022-09-24T01:54:52;8.68;;;7.07;;
787;SDS011;16074;42.708;23.312;2022-09-24T01:57:23;9.35;;;8.45;;
787;SDS011;16074;42.708;23.312;2022-09-24T01:59:58;7.95;;;7.20;;
787;SDS011;16074;42.708;23.312;2022-09-24T02:02:38;8.05;;;7.20;;
787;SDS011;16074;42.708;23.312;2022-09-24T02:05:13;9.52;;;8.30;;
787;SDS011;16074;42.708;23.312;2022-09-24T02:07:51;7.78;;;6.80;;
787;SDS011;16074;42.708;23.312;2022-09-24T02:10:24;9.27;;;7.15;;
787;SDS011;16074;42.708;23.312;2022-09-24T02:12:58;8.52;;;7.72;;
787;SDS011;16074;42.708;23.312;2022-09-24T02:15:32;9.73;;;8.70;;
787;SDS011;16074;42.708;23.312;2022-09-24T02:18:05;8.70;;;7.00;;
787;SDS011;16074;42.708;23.312;2022-09-24T02:20:35;8.30;;;6.95;;
787;SDS011;16074;42.708;23.312;2022-09-24T02:23:06;7.45;;;6.75;;
787;SDS011;16074;42.708;23.312;2022-09-24T02:25:37;6.40;;;5.85;;
787;SDS011;16074;42.708;23.312;2022-09-24T02:28:14;7.07;;;6.30;;
787;SDS011;16074;42.708;23.312;2022-09-24T02:30:45;8.35;;;6.88;;
787;SDS011;16074;42.708;23.312;2022-09-24T02:33:18;6.97;;;6.38;;
787;SDS011;16074;42.708;23.312;2022-09-24T02:36:05;8.50;;;7.10;;
787;SDS011;16074;42.708;23.312;2022-09-24T02:38:34;8.13;;;6.63;;
787;SDS011;16074;42.708;23.312;2022-09-24T02:41:02;7.22;;;6.63;;
787;SDS011;16074;42.708;23.312;2022-09-24T02:43:33;8.00;;;7.30;;
787;SDS011;16074;42.708;23.312;2022-09-24T02:46:03;6.97;;;6.10;;
787;SDS011;16074;42.708;23.312;2022-09-24T02:48:31;7.38;;;6.78;;
787;SDS011;16074;42.708;23.312;2022-09-24T02:51:00;6.05;;;5.53;;
787;SDS011;16074;42.708;23.312;2022-09-24T02:53:29;7.60;;;6.90;;
787;SDS011;16074;42.708;23.312;2022-09-24T02:55:57;6.68;;;5.55;;
787;SDS011;16074;42.708;23.312;2022-09-24T02:58:27;6.32;;;5.78;;
787;SDS011;16074;42.708;23.312;2022-09-24T03:00:56;6.75;;;6.07;;
787;SDS011;16074;42.708;23.312;2022-09-24T03:03:25;8.70;;;7.10;;
787;SDS011;16074;42.708;23.312;2022-09-24T03:05:54;7.13;;;6.43;;
787;SDS011;16074;42.708;23.312;2022-09-24T03:08:22;7.20;;;6.28;;
787;SDS011;16074;42.708;23.312;2022-09-24T03:10:51;6.25;;;5.68;;
787;SDS011;16074;42.708;23.312;2022-09-24T03:13:19;7.47;;;6.72;;
787;SDS011;16074;42.708;23.312;2022-09-24T03:15:47;7.03;;;6.43;;
787;SDS011;16074;42.708;23.312;2022-09-24T03:18:16;9.95;;;8.90;;
787;SDS011;16074;42.708;23.312;2022-09-24T03:20:54;9.18;;;8.27;;
787;SDS011;16074;42.708;23.312;2022-09-24T03:23:22;8.07;;;7.28;;
787;SDS011;16074;42.708;23.312;2022-09-24T03:25:51;8.80;;;7.82;;
787;SDS011;16074;42.708;23.312;2022-09-24T03:28:19;9.15;;;8.23;;
787;SDS011;16074;42.708;23.312;2022-09-24T03:30:47;8.88;;;7.97;;
787;SDS011;16074;42.708;23.312;2022-09-24T03:33:28;7.88;;;7.07;;
787;SDS011;16074;42.708;23.312;2022-09-24T03:35:59;10.95;;;7.55;;
787;SDS011;16074;42.708;23.312;2022-09-24T03:38:29;7.75;;;7.05;;
787;SDS011;16074;42.708;23.312;2022-09-24T03:40:57;7.60;;;7.00;;
787;SDS011;16074;42.708;23.312;2022-09-24T03:43:26;6.90;;;6.30;;
787;SDS011;16074;42.708;23.312;2022-09-24T03:45:55;8.13;;;7.30;;
787;SDS011;16074;42.708;23.312;2022-09-24T03:48:23;8.40;;;7.43;;
787;SDS011;16074;42.708;23.312;2022-09-24T03:50:52;8.27;;;7.55;;
787;SDS011;16074;42.708;23.312;2022-09-24T03:53:22;12.18;;;8.57;;
787;SDS011;16074;42.708;23.312;2022-09-24T03:55:52;9.50;;;7.15;;
787;SDS011;16074;42.708;23.312;2022-09-24T03:58:22;7.90;;;7.18;;
787;SDS011;16074;42.708;23.312;2022-09-24T04:00:51;8.07;;;7.25;;
787;SDS011;16074;42.708;23.312;2022-09-24T04:03:20;7.50;;;6.80;;
787;SDS011;16074;42.708;23.312;2022-09-24T04:05:48;9.57;;;7.30;;
787;SDS011;16074;42.708;23.312;2022-09-24T04:08:17;9.52;;;7.65;;
787;SDS011;16074;42.708;23.312;2022-09-24T04:10:48;7.70;;;6.88;;
787;SDS011;16074;42.708;23.312;2022-09-24T04:13:17;8.88;;;7.97;;
787;SDS011;16074;42.708;23.312;2022-09-24T04:15:46;7.90;;;6.63;;
787;SDS011;16074;42.708;23.312;2022-09-24T04:18:17;7.60;;;6.40;;
787;SDS011;16074;42.708;23.312;2022-09-24T04:20:45;7.97;;;7.25;;
787;SDS011;16074;42.708;23.312;2022-09-24T04:23:13;8.52;;;6.90;;
787;SDS011;16074;42.708;23.312;2022-09-24T04:25:41;9.38;;;6.70;;
787;SDS011;16074;42.708;23.312;2022-09-24T04:28:11;8.00;;;7.25;;
787;SDS011;16074;42.708;23.312;2022-09-24T04:30:39;6.30;;;5.63;;
787;SDS011;16074;42.708;23.312;2022-09-24T04:33:08;7.00;;;6.30;;
787;SDS011;16074;42.708;23.312;2022-09-24T04:35:36;8.00;;;6.90;;
787;SDS011;16074;42.708;23.312;2022-09-24T04:38:05;8.02;;;7.22;;
787;SDS011;16074;42.708;23.312;2022-09-24T04:40:33;7.95;;;7.25;;
787;SDS011;16074;42.708;23.312;2022-09-24T04:43:01;8.65;;;7.15;;
787;SDS011;16074;42.708;23.312;2022-09-24T04:45:33;8.98;;;8.05;;
787;SDS011;16074;42.708;23.312;2022-09-24T04:48:01;7.28;;;6.68;;
787;SDS011;16074;42.708;23.312;2022-09-24T04:50:29;8.05;;;7.25;;
787;SDS011;16074;42.708;23.312;2022-09-24T04:52:59;8.73;;;7.75;;
787;SDS011;16074;42.708;23.312;2022-09-24T04:55:28;7.95;;;7.15;;
787;SDS011;16074;42.708;23.312;2022-09-24T04:57:57;8.00;;;7.20;;
787;SDS011;16074;42.708;23.312;2022-09-24T05:00:26;7.80;;;7.10;;
787;SDS011;16074;42.708;23.312;2022-09-24T05:02:59;8.10;;;7.30;;
787;SDS011;16074;42.708;23.312;2022-09-24T05:05:30;8.90;;;6.78;;
787;SDS011;16074;42.708;23.312;2022-09-24T05:07:59;8.15;;;7.40;;
787;SDS011;16074;42.708;23.312;2022-09-24T05:10:28;7.70;;;6.93;;
787;SDS011;16074;42.708;23.312;2022-09-24T05:12:57;8.05;;;7.35;;
787;SDS011;16074;42.708;23.312;2022-09-24T05:15:25;7.20;;;6.55;;
787;SDS011;16074;42.708;23.312;2022-09-24T05:17:54;10.15;;;7.53;;
787;SDS011;16074;42.708;23.312;2022-09-24T05:20:23;7.50;;;6.80;;
787;SDS011;16074;42.708;23.312;2022-09-24T05:22:52;11.20;;;8.43;;
787;SDS011;16074;42.708;23.312;2022-09-24T05:25:20;11.77;;;7.75;;
787;SDS011;16074;42.708;23.312;2022-09-24T05:27:49;9.40;;;8.50;;
787;SDS011;16074;42.708;23.312;2022-09-24T05:30:18;11.50;;;8.18;;
787;SDS011;16074;42.708;23.312;2022-09-24T05:32:48;8.88;;;7.97;;
787;SDS011;16074;42.708;23.312;2022-09-24T05:35:18;8.98;;;8.07;;
787;SDS011;16074;42.708;23.312;2022-09-24T05:37:48;9.32;;;8.35;;
787;SDS011;16074;42.708;23.312;2022-09-24T05:40:19;11.50;;;8.65;;
787;SDS011;16074;42.708;23.312;2022-09-24T05:43:05;9.52;;;8.02;;
787;SDS011;16074;42.708;23.312;2022-09-24T05:45:33;11.60;;;8.65;;
787;SDS011;16074;42.708;23.312;2022-09-24T05:48:01;12.52;;;9.52;;
787;SDS011;16074;42.708;23.312;2022-09-24T05:50:29;8.88;;;7.95;;
787;SDS011;16074;42.708;23.312;2022-09-24T05:53:02;9.57;;;8.57;;
787;SDS011;16074;42.708;23.312;2022-09-24T05:55:31;10.00;;;8.10;;
787;SDS011;16074;42.708;23.312;2022-09-24T05:58:03;11.48;;;9.40;;
787;SDS011;16074;42.708;23.312;2022-09-24T06:00:32;9.82;;;8.65;;
787;SDS011;16074;42.708;23.312;2022-09-24T06:03:01;9.40;;;8.40;;
787;SDS011;16074;42.708;23.312;2022-09-24T06:05:32;13.02;;;8.48;;
787;SDS011;16074;42.708;23.312;2022-09-24T06:08:02;12.05;;;8.95;;
787;SDS011;16074;42.708;23.312;2022-09-24T06:10:31;10.70;;;9.18;;
787;SDS011;16074;42.708;23.312;2022-09-24T06:12:59;12.15;;;10.13;;
787;SDS011;16074;42.708;23.312;2022-09-24T06:15:27;11.13;;;9.43;;
787;SDS011;16074;42.708;23.312;2022-09-24T06:17:56;12.48;;;10.00;;
787;SDS011;16074;42.708;23.312;2022-09-24T06:20:24;10.10;;;9.15;;
787;SDS011;16074;42.708;23.312;2022-09-24T06:22:53;11.32;;;9.63;;
787;SDS011;16074;42.708;23.312;2022-09-24T06:25:24;10.32;;;9.23;;
787;SDS011;16074;42.708;23.312;2022-09-24T06:27:53;12.25;;;10.18;;
787;SDS011;16074;42.708;23.312;2022-09-24T06:30:26;12.13;;;10.50;;
787;SDS011;16074;42.708;23.312;2022-09-24T06:32:59;11.82;;;10.27;;
787;SDS011;16074;42.708;23.312;2022-09-24T06:35:28;11.55;;;10.35;;
787;SDS011;16074;42.708;23.312;2022-09-24T06:37:56;13.10;;;10.18;;
787;SDS011;16074;42.708;23.312;2022-09-24T06:40:26;12.95;;;11.75;;
787;SDS011;16074;42.708;23.312;2022-09-24T06:43:01;14.02;;;12.73;;
787;SDS011;16074;42.708;23.312;2022-09-24T06:45:30;12.55;;;11.35;;
787;SDS011;16074;42.708;23.312;2022-09-24T06:47:59;12.95;;;11.65;;
787;SDS011;16074;42.708;23.312;2022-09-24T06:50:30;13.55;;;11.82;;
787;SDS011;16074;42.708;23.312;2022-09-24T06:53:03;13.57;;;12.15;;
787;SDS011;16074;42.708;23.312;2022-09-24T06:55:33;14.70;;;12.43;;
787;SDS011;16074;42.708;23.312;2022-09-24T06:58:03;13.50;;;12.13;;
787;SDS011;16074;42.708;23.312;2022-09-24T07:00:32;12.65;;;11.18;;
787;SDS011;16074;42.708;23.312;2022-09-24T07:03:01;12.55;;;11.43;;
787;SDS011;16074;42.708;23.312;2022-09-24T07:05:30;13.45;;;11.55;;
787;SDS011;16074;42.708;23.312;2022-09-24T07:07:59;9.48;;;8.48;;
787;SDS011;16074;42.708;23.312;2022-09-24T07:10:27;10.85;;;9.90;;
787;SDS011;16074;42.708;23.312;2022-09-24T07:12:57;11.15;;;10.10;;
787;SDS011;16074;42.708;23.312;2022-09-24T07:15:26;12.85;;;11.55;;
787;SDS011;16074;42.708;23.312;2022-09-24T07:17:54;16.80;;;12.00;;
787;SDS011;16074;42.708;23.312;2022-09-24T07:20:22;14.88;;;13.35;;
787;SDS011;16074;42.708;23.312;2022-09-24T07:22:53;16.13;;;11.70;;
787;SDS011;16074;42.708;23.312;2022-09-24T07:25:22;13.05;;;11.85;;
787;SDS011;16074;42.708;23.312;2022-09-24T07:27:50;12.55;;;11.25;;
787;SDS011;16074;42.708;23.312;2022-09-24T07:30:19;12.07;;;11.00;;
787;SDS011;16074;42.708;23.312;2022-09-24T07:32:52;13.27;;;11.10;;
787;SDS011;16074;42.708;23.312;2022-09-24T07:35:21;12.43;;;11.03;;
787;SDS011;16074;42.708;23.312;2022-09-24T07:37:55;11.37;;;10.20;;
787;SDS011;16074;42.708;23.312;2022-09-24T07:40:24;11.53;;;10.43;;
787;SDS011;16074;42.708;23.312;2022-09-24T07:42:53;17.00;;;9.73;;
787;SDS011;16074;42.708;23.312;2022-09-24T07:45:24;10.47;;;9.47;;
787;SDS011;16074;42.708;23.312;2022-09-24T07:47:55;14.23;;;8.87;;
787;SDS011;16074;42.708;23.312;2022-09-24T07:50:25;10.17;;;9.23;;
787;SDS011;16074;42.708;23.312;2022-09-24T07:52:54;11.83;;;10.73;;
787;SDS011;16074;42.708;23.312;2022-09-24T07:55:23;9.80;;;8.93;;
787;SDS011;16074;42.708;23.312;2022-09-24T07:57:52;10.43;;;8.90;;
787;SDS011;16074;42.708;23.312;2022-09-24T08:00:21;9.40;;;8.50;;
787;SDS011;16074;42.708;23.312;2022-09-24T08:02:52;13.47;;;11.80;;
787;SDS011;16074;42.708;23.312;2022-09-24T08:05:22;12.83;;;11.37;;
787;SDS011;16074;42.708;23.312;2022-09-24T08:07:51;11.47;;;10.37;;
787;SDS011;16074;42.708;23.312;2022-09-24T08:10:19;11.53;;;10.43;;
787;SDS011;16074;42.708;23.312;2022-09-24T08:12:48;9.47;;;8.63;;
787;SDS011;16074;42.708;23.312;2022-09-24T08:15:16;9.93;;;9.00;;
787;SDS011;16074;42.708;23.312;2022-09-24T08:17:46;12.00;;;10.90;;
787;SDS011;16074;42.708;23.312;2022-09-24T08:20:14;11.03;;;9.37;;
787;SDS011;16074;42.708;23.312;2022-09-24T08:22:43;10.13;;;9.13;;
787;SDS011;16074;42.708;23.312;2022-09-24T08:25:11;11.10;;;10.07;;
787;SDS011;16074;42.708;23.312;2022-09-24T08:27:39;10.53;;;9.63;;
787;SDS011;16074;42.708;23.312;2022-09-24T08:30:07;10.20;;;9.40;;
787;SDS011;16074;42.708;23.312;2022-09-24T08:32:36;10.40;;;9.50;;
787;SDS011;16074;42.708;23.312;2022-09-24T08:35:07;11.10;;;10.10;;
787;SDS011;16074;42.708;23.312;2022-09-24T08:37:35;11.23;;;10.23;;
787;SDS011;16074;42.708;23.312;2022-09-24T08:40:04;10.97;;;9.83;;
787;SDS011;16074;42.708;23.312;2022-09-24T08:42:35;9.67;;;8.77;;
787;SDS011;16074;42.708;23.312;2022-09-24T08:45:10;11.10;;;10.20;;
787;SDS011;16074;42.708;23.312;2022-09-24T08:47:56;10.70;;;9.70;;
787;SDS011;16074;42.708;23.312;2022-09-24T08:50:29;10.00;;;9.03;;
787;SDS011;16074;42.708;23.312;2022-09-24T08:53:02;10.10;;;9.20;;
787;SDS011;16074;42.708;23.312;2022-09-24T08:55:39;10.43;;;9.47;;
787;SDS011;16074;42.708;23.312;2022-09-24T09:01:12;9.00;;;8.10;;
787;SDS011;16074;42.708;23.312;2022-09-24T09:03:49;10.10;;;9.10;;
787;SDS011;16074;42.708;23.312;2022-09-24T09:06:34;8.87;;;8.13;;
787;SDS011;16074;42.708;23.312;2022-09-24T09:09:14;10.73;;;8.00;;
787;SDS011;16074;42.708;23.312;2022-09-24T09:11:47;8.17;;;7.60;;
787;SDS011;16074;42.708;23.312;2022-09-24T09:14:18;9.77;;;8.00;;
787;SDS011;16074;42.708;23.312;2022-09-24T09:16:57;12.10;;;9.67;;
787;SDS011;16074;42.708;23.312;2022-09-24T09:19:31;7.10;;;6.57;;
787;SDS011;16074;42.708;23.312;2022-09-24T09:22:04;7.60;;;6.90;;
787;SDS011;16074;42.708;23.312;2022-09-24T09:24:38;8.07;;;7.37;;
787;SDS011;16074;42.708;23.312;2022-09-24T09:27:11;7.20;;;6.60;;
787;SDS011;16074;42.708;23.312;2022-09-24T09:29:41;7.83;;;7.23;;
787;SDS011;16074;42.708;23.312;2022-09-24T09:32:15;6.93;;;6.33;;
787;SDS011;16074;42.708;23.312;2022-09-24T09:34:57;7.23;;;6.50;;
787;SDS011;16074;42.708;23.312;2022-09-24T09:37:35;7.07;;;6.50;;
787;SDS011;16074;42.708;23.312;2022-09-24T09:40:14;7.00;;;6.40;;
787;SDS011;16074;42.708;23.312;2022-09-24T09:42:58;6.70;;;6.20;;
787;SDS011;16074;42.708;23.312;2022-09-24T09:45:29;6.20;;;5.70;;
787;SDS011;16074;42.708;23.312;2022-09-24T09:48:02;6.70;;;6.07;;
787;SDS011;16074;42.708;23.312;2022-09-24T09:50:33;5.57;;;5.13;;
787;SDS011;16074;42.708;23.312;2022-09-24T09:53:17;5.67;;;5.27;;
787;SDS011;16074;42.708;23.312;2022-09-24T09:55:50;5.53;;;5.17;;
787;SDS011;16074;42.708;23.312;2022-09-24T09:58:21;6.63;;;5.17;;
787;SDS011;16074;42.708;23.312;2022-09-24T10:00:50;5.20;;;4.80;;
787;SDS011;16074;42.708;23.312;2022-09-24T10:03:20;4.83;;;4.50;;
787;SDS011;16074;42.708;23.312;2022-09-24T10:05:53;5.30;;;4.90;;
787;SDS011;16074;42.708;23.312;2022-09-24T10:08:24;4.07;;;3.80;;
787;SDS011;16074;42.708;23.312;2022-09-24T10:10:53;5.00;;;4.60;;
787;SDS011;16074;42.708;23.312;2022-09-24T10:13:22;5.67;;;4.90;;
787;SDS011;16074;42.708;23.312;2022-09-24T10:15:51;5.13;;;4.73;;
787;SDS011;16074;42.708;23.312;2022-09-24T10:18:24;4.90;;;4.23;;
787;SDS011;16074;42.708;23.312;2022-09-24T10:20:56;4.47;;;4.17;;
787;SDS011;16074;42.708;23.312;2022-09-24T10:23:32;5.17;;;4.77;;
787;SDS011;16074;42.708;23.312;2022-09-24T10:26:03;5.03;;;4.00;;
787;SDS011;16074;42.708;23.312;2022-09-24T10:28:32;3.70;;;3.40;;
787;SDS011;16074;42.708;23.312;2022-09-24T10:31:19;4.73;;;4.30;;
787;SDS011;16074;42.708;23.312;2022-09-24T10:33:50;4.10;;;3.80;;
787;SDS011;16074;42.708;23.312;2022-09-24T10:36:21;3.53;;;3.33;;
787;SDS011;16074;42.708;23.312;2022-09-24T10:39:02;3.43;;;3.20;;
787;SDS011;16074;42.708;23.312;2022-09-24T10:41:31;3.13;;;2.90;;
787;SDS011;16074;42.708;23.312;2022-09-24T10:44:00;3.50;;;3.30;;
787;SDS011;16074;42.708;23.312;2022-09-24T10:46:38;2.77;;;2.67;;
787;SDS011;16074;42.708;23.312;2022-09-24T10:49:21;3.13;;;2.93;;
787;SDS011;16074;42.708;23.312;2022-09-24T10:52:01;3.10;;;2.90;;
787;SDS011;16074;42.708;23.312;2022-09-24T10:54:43;3.87;;;3.67;;
787;SDS011;16074;42.708;23.312;2022-09-24T10:57:23;2.47;;;2.37;;
787;SDS011;16074;42.708;23.312;2022-09-24T11:00:00;3.47;;;3.27;;
787;SDS011;16074;42.708;23.312;2022-09-24T11:05:48;3.57;;;3.37;;
787;SDS011;16074;42.708;23.312;2022-09-24T11:08:23;2.77;;;2.67;;
787;SDS011;16074;42.708;23.312;2022-09-24T11:11:15;3.20;;;3.00;;
787;SDS011;16074;42.708;23.312;2022-09-24T11:13:51;3.33;;;3.03;;
787;SDS011;16074;42.708;23.312;2022-09-24T11:16:35;3.20;;;3.00;;
787;SDS011;16074;42.708;23.312;2022-09-24T11:19:27;2.87;;;2.67;;
787;SDS011;16074;42.708;23.312;2022-09-24T11:22:15;3.50;;;3.30;;
787;SDS011;16074;42.708;23.312;2022-09-24T11:24:58;3.53;;;3.33;;
787;SDS011;16074;42.708;23.312;2022-09-24T11:27:50;2.87;;;2.77;;
787;SDS011;16074;42.708;23.312;2022-09-24T11:30:27;3.30;;;3.10;;
787;SDS011;16074;42.708;23.312;2022-09-24T11:33:08;2.90;;;2.80;;
787;SDS011;16074;42.708;23.312;2022-09-24T11:35:56;2.90;;;2.80;;
787;SDS011;16074;42.708;23.312;2022-09-24T11:38:40;3.37;;;3.17;;
787;SDS011;16074;42.708;23.312;2022-09-24T11:41:22;3.73;;;3.00;;
787;SDS011;16074;42.708;23.312;2022-09-24T11:44:03;3.10;;;2.90;;
787;SDS011;16074;42.708;23.312;2022-09-24T11:46:51;3.20;;;3.00;;
787;SDS011;16074;42.708;23.312;2022-09-24T11:52:27;2.97;;;2.77;;
787;SDS011;16074;42.708;23.312;2022-09-24T11:55:01;3.07;;;2.87;;
787;SDS011;16074;42.708;23.312;2022-09-24T11:57:38;2.90;;;2.80;;
787;SDS011;16074;42.708;23.312;2022-09-24T12:00:13;4.30;;;3.90;;
787;SDS011;16074;42.708;23.312;2022-09-24T12:02:44;3.10;;;2.90;;
787;SDS011;16074;42.708;23.312;2022-09-24T12:05:19;2.83;;;2.73;;
787;SDS011;16074;42.708;23.312;2022-09-24T12:07:54;3.00;;;2.80;;
787;SDS011;16074;42.708;23.312;2022-09-24T12:10:28;3.30;;;3.10;;
787;SDS011;16074;42.708;23.312;2022-09-24T12:13:05;3.43;;;2.60;;
787;SDS011;16074;42.708;23.312;2022-09-24T12:15:44;2.70;;;2.60;;
787;SDS011;16074;42.708;23.312;2022-09-24T12:18:16;3.30;;;3.10;;
787;SDS011;16074;42.708;23.312;2022-09-24T12:20:49;3.20;;;3.00;;
787;SDS011;16074;42.708;23.312;2022-09-24T12:23:21;2.93;;;2.83;;
787;SDS011;16074;42.708;23.312;2022-09-24T12:25:53;3.40;;;3.20;;
787;SDS011;16074;42.708;23.312;2022-09-24T12:28:25;2.43;;;2.33;;
787;SDS011;16074;42.708;23.312;2022-09-24T12:31:21;2.80;;;2.20;;
787;SDS011;16074;42.708;23.312;2022-09-24T12:34:16;3.50;;;3.30;;
787;SDS011;16074;42.708;23.312;2022-09-24T12:36:55;2.83;;;2.73;;
787;SDS011;16074;42.708;23.312;2022-09-24T12:39:29;2.80;;;2.70;;
787;SDS011;16074;42.708;23.312;2022-09-24T12:42:03;2.60;;;2.50;;
787;SDS011;16074;42.708;23.312;2022-09-24T12:44:36;2.90;;;2.80;;
787;SDS011;16074;42.708;23.312;2022-09-24T12:47:17;2.93;;;2.83;;
787;SDS011;16074;42.708;23.312;2022-09-24T12:49:48;2.93;;;2.73;;
787;SDS011;16074;42.708;23.312;2022-09-24T12:52:24;2.57;;;2.47;;
787;SDS011;16074;42.708;23.312;2022-09-24T12:54:58;3.10;;;2.90;;
787;SDS011;16074;42.708;23.312;2022-09-24T12:57:29;2.90;;;2.70;;
787;SDS011;16074;42.708;23.312;2022-09-24T13:00:02;2.70;;;2.60;;
787;SDS011;16074;42.708;23.312;2022-09-24T13:02:52;3.60;;;3.27;;
787;SDS011;16074;42.708;23.312;2022-09-24T13:05:25;3.50;;;3.30;;
787;SDS011;16074;42.708;23.312;2022-09-24T13:07:56;2.43;;;2.33;;
787;SDS011;16074;42.708;23.312;2022-09-24T13:10:27;3.13;;;2.93;;
787;SDS011;16074;42.708;23.312;2022-09-24T13:13:02;2.60;;;2.40;;
787;SDS011;16074;42.708;23.312;2022-09-24T13:15:56;3.03;;;2.83;;
787;SDS011;16074;42.708;23.312;2022-09-24T13:18:28;2.80;;;2.70;;
787;SDS011;16074;42.708;23.312;2022-09-24T13:21:00;2.63;;;2.50;;
787;SDS011;16074;42.708;23.312;2022-09-24T13:23:42;2.87;;;2.77;;
787;SDS011;16074;42.708;23.312;2022-09-24T13:26:13;2.80;;;2.70;;
787;SDS011;16074;42.708;23.312;2022-09-24T13:28:54;3.30;;;3.00;;
787;SDS011;16074;42.708;23.312;2022-09-24T13:31:26;3.47;;;3.27;;
787;SDS011;16074;42.708;23.312;2022-09-24T13:34:02;2.80;;;2.70;;
787;SDS011;16074;42.708;23.312;2022-09-24T13:36:41;3.10;;;3.00;;
787;SDS011;16074;42.708;23.312;2022-09-24T13:39:14;3.00;;;2.80;;
787;SDS011;16074;42.708;23.312;2022-09-24T13:41:49;3.17;;;2.63;;
787;SDS011;16074;42.708;23.312;2022-09-24T13:44:25;2.87;;;2.77;;
787;SDS011;16074;42.708;23.312;2022-09-24T13:46:58;2.80;;;2.60;;
787;SDS011;16074;42.708;23.312;2022-09-24T13:49:30;3.07;;;2.87;;
787;SDS011;16074;42.708;23.312;2022-09-24T13:52:08;2.60;;;2.50;;
787;SDS011;16074;42.708;23.312;2022-09-24T13:54:46;2.73;;;2.53;;
787;SDS011;16074;42.708;23.312;2022-09-24T13:57:19;3.10;;;3.00;;
787;SDS011;16074;42.708;23.312;2022-09-24T14:00:00;2.83;;;2.70;;
787;SDS011;16074;42.708;23.312;2022-09-24T14:02:40;3.43;;;3.23;;
787;SDS011;16074;42.708;23.312;2022-09-24T14:05:15;2.77;;;2.57;;
787;SDS011;16074;42.708;23.312;2022-09-24T14:07:51;2.60;;;2.50;;
787;SDS011;16074;42.708;23.312;2022-09-24T14:10:21;3.13;;;2.97;;
787;SDS011;16074;42.708;23.312;2022-09-24T14:13:00;3.27;;;3.07;;
787;SDS011;16074;42.708;23.312;2022-09-24T14:15:48;3.00;;;2.80;;
787;SDS011;16074;42.708;23.312;2022-09-24T14:18:21;3.17;;;3.07;;
787;SDS011;16074;42.708;23.312;2022-09-24T14:20:52;2.70;;;2.60;;
787;SDS011;16074;42.708;23.312;2022-09-24T14:23:25;3.10;;;2.93;;
787;SDS011;16074;42.708;23.312;2022-09-24T14:25:59;2.93;;;2.73;;
787;SDS011;16074;42.708;23.312;2022-09-24T14:28:28;3.40;;;3.20;;
787;SDS011;16074;42.708;23.312;2022-09-24T14:30:58;3.07;;;2.87;;
787;SDS011;16074;42.708;23.312;2022-09-24T14:33:28;3.87;;;3.37;;
787;SDS011;16074;42.708;23.312;2022-09-24T14:35:59;2.70;;;2.60;;
787;SDS011;16074;42.708;23.312;2022-09-24T14:38:30;3.17;;;2.97;;
787;SDS011;16074;42.708;23.312;2022-09-24T14:41:02;3.20;;;3.00;;
787;SDS011;16074;42.708;23.312;2022-09-24T14:43:36;3.40;;;3.20;;
787;SDS011;16074;42.708;23.312;2022-09-24T14:46:13;3.20;;;3.00;;
787;SDS011;16074;42.708;23.312;2022-09-24T14:48:45;3.00;;;2.80;;
787;SDS011;16074;42.708;23.312;2022-09-24T14:51:23;3.50;;;3.30;;
787;SDS011;16074;42.708;23.312;2022-09-24T14:53:56;3.53;;;3.30;;
787;SDS011;16074;42.708;23.312;2022-09-24T14:56:26;6.90;;;3.47;;
787;SDS011;16074;42.708;23.312;2022-09-24T14:58:56;3.50;;;3.30;;
787;SDS011;16074;42.708;23.312;2022-09-24T15:01:28;6.50;;;3.33;;
787;SDS011;16074;42.708;23.312;2022-09-24T15:03:58;3.27;;;3.03;;
787;SDS011;16074;42.708;23.312;2022-09-24T15:06:31;3.40;;;3.20;;
787;SDS011;16074;42.708;23.312;2022-09-24T15:09:02;4.07;;;3.67;;
787;SDS011;16074;42.708;23.312;2022-09-24T15:11:33;3.83;;;3.43;;
787;SDS011;16074;42.708;23.312;2022-09-24T15:14:10;3.87;;;3.67;;
787;SDS011;16074;42.708;23.312;2022-09-24T15:16:40;4.50;;;4.10;;
787;SDS011;16074;42.708;23.312;2022-09-24T15:19:13;3.63;;;3.37;;
787;SDS011;16074;42.708;23.312;2022-09-24T15:21:46;3.97;;;3.67;;
787;SDS011;16074;42.708;23.312;2022-09-24T15:24:16;3.50;;;3.30;;
787;SDS011;16074;42.708;23.312;2022-09-24T15:26:46;5.50;;;3.90;;
787;SDS011;16074;42.708;23.312;2022-09-24T15:29:17;3.10;;;3.00;;
787;SDS011;16074;42.708;23.312;2022-09-24T15:31:50;3.80;;;3.50;;
787;SDS011;16074;42.708;23.312;2022-09-24T15:34:18;4.30;;;4.00;;
787;SDS011;16074;42.708;23.312;2022-09-24T15:36:48;3.70;;;3.50;;
787;SDS011;16074;42.708;23.312;2022-09-24T15:39:20;4.20;;;3.30;;
787;SDS011;16074;42.708;23.312;2022-09-24T15:41:49;4.03;;;3.73;;
787;SDS011;16074;42.708;23.312;2022-09-24T15:44:19;5.90;;;4.10;;
787;SDS011;16074;42.708;23.312;2022-09-24T15:46:48;3.60;;;3.40;;